O'Brien, Oregon
Current Conditions -  °F | °C
As of 12:27 PM on Monday 22 Dec 2014 (Local Time) from KBOK Reporting Station
Haze Haze  
Wind Chill: 14°   Ceiling: 100
Heat Index: 14°   Visibility: 2mi
Dew Point: 14°   Wind: 5mph
Humidity: 100%   Direction: NA
Pressure: 30.35"   Gusts: NA
Location:  42.07°N, 123.71°W
Report Text: KBOK 222027Z AUTO VRB04KT 2SM BR OVC001 14/14 A3035 RMK AO2
Loading
Personal Weather Stations






























Interactive Weather Map New forecast layout! Learn more

10-Day Weather Forecast

Advertisements
Track Severe Weather on mobile